Time;durP1;ratioP1;P1;durP2;ratioP2;P2;SDS_P1;SDS_P2;PMS_P1;PMS_P2;Temp;Humidity;BMP_temperature;BMP_pressure;BME280_temperature;BME280_humidity;BME280_pressure;Samples;Min_cycle;Max_cycle;Signal;HPM_P1;HPM_P2
2021/06/05 00:01:16;;;;;;;;;;;21.40;45.60;;;;;;500846;237;1140;-44
2021/06/05 00:03:17;;;;;;;;;;;21.40;45.60;;;;;;500881;237;1257;-45
2021/06/05 00:05:20;;;;;;;;;;;21.40;45.60;;;;;;500739;237;1033;-45
2021/06/05 00:07:20;;;;;;;;;;;21.50;45.60;;;;;;500636;237;2117;-45
2021/06/05 00:09:21;;;;;;;;;;;21.50;45.60;;;;;;500551;237;2137;-45
2021/06/05 00:11:22;;;;;;;;;;;21.50;45.50;;;;;;500406;237;1156;-45
2021/06/05 00:13:23;;;;;;;;;;;21.50;45.40;;;;;;500381;237;1057;-45
2021/06/05 00:15:25;;;;;;;;;;;21.50;45.40;;;;;;500620;237;1080;-45
2021/06/05 00:17:26;;;;;;;;;;;21.60;45.40;;;;;;500784;237;1169;-45
2021/06/05 00:19:27;;;;;;;;;;;21.60;45.50;;;;;;500866;237;1086;-45
2021/06/05 00:21:28;;;;;;;;;;;21.50;45.40;;;;;;500773;237;1286;-44
2021/06/05 00:23:30;;;;;;;;;;;21.60;45.40;;;;;;500433;237;1212;-45
2021/06/05 00:25:31;;;;;;;;;;;21.60;45.30;;;;;;500864;237;1124;-45
2021/06/05 00:27:34;;;;;;;;;;;21.60;45.40;;;;;;500812;237;1225;-45
2021/06/05 00:29:34;;;;;;;;;;;21.70;45.30;;;;;;500585;237;2278;-45
2021/06/05 00:31:35;;;;;;;;;;;21.50;45.40;;;;;;500429;237;1411;-44
2021/06/05 00:33:36;;;;;;;;;;;21.10;46.40;;;;;;500420;237;954;-44
2021/06/05 00:35:37;;;;;;;;;;;20.50;47.80;;;;;;500409;237;1460;-45
2021/06/05 00:37:39;;;;;;;;;;;20.10;48.90;;;;;;500674;237;1500;-44
2021/06/05 00:39:40;;;;;;;;;;;19.90;49.60;;;;;;500904;237;1072;-44
2021/06/05 00:41:41;;;;;;;;;;;19.70;50.00;;;;;;500835;237;1327;-44
2021/06/05 00:43:43;;;;;;;;;;;19.60;50.50;;;;;;500444;237;1029;-44
2021/06/05 00:45:44;;;;;;;;;;;19.50;50.80;;;;;;500724;237;1184;-44
2021/06/05 00:47:45;;;;;;;;;;;19.30;50.90;;;;;;500335;237;1260;-44
2021/06/05 00:49:46;;;;;;;;;;;19.30;51.30;;;;;;500599;237;2182;-44
2021/06/05 00:51:49;;;;;;;;;;;19.20;51.30;;;;;;500334;237;1323;-45
2021/06/05 00:53:50;;;;;;;;;;;19.20;51.60;;;;;;500475;237;1590;-44
2021/06/05 00:55:51;;;;;;;;;;;19.10;51.60;;;;;;500871;237;1544;-44
2021/06/05 00:57:52;;;;;;;;;;;19.10;51.70;;;;;;500406;237;1595;-44
2021/06/05 00:59:53;;;;;;;;;;;19.00;51.90;;;;;;500511;237;1042;-44
2021/06/05 01:01:55;;;;;;;;;;;19.00;52.00;;;;;;500305;237;1374;-44
2021/06/05 01:03:56;;;;;;;;;;;19.00;52.00;;;;;;500913;237;975;-44
2021/06/05 01:05:57;;;;;;;;;;;18.90;52.10;;;;;;500636;237;1369;-44
2021/06/05 01:07:58;;;;;;;;;;;18.90;52.20;;;;;;500423;237;1106;-44
2021/06/05 01:10:00;;;;;;;;;;;18.90;52.20;;;;;;500480;237;2184;-44
2021/06/05 01:12:01;;;;;;;;;;;18.80;52.30;;;;;;500724;237;1278;-44
2021/06/05 01:14:04;;;;;;;;;;;18.80;52.50;;;;;;500849;237;965;-44
2021/06/05 01:16:05;;;;;;;;;;;18.80;52.60;;;;;;500799;237;1438;-45
2021/06/05 01:18:06;;;;;;;;;;;18.70;52.60;;;;;;500411;237;1021;-44
2021/06/05 01:20:08;;;;;;;;;;;18.70;52.60;;;;;;500868;237;1090;-44
2021/06/05 01:22:09;;;;;;;;;;;18.70;52.60;;;;;;500463;237;1142;-44
2021/06/05 01:24:10;;;;;;;;;;;18.70;52.70;;;;;;500503;237;1179;-44
2021/06/05 01:26:11;;;;;;;;;;;18.70;52.60;;;;;;500895;237;1704;-44
2021/06/05 01:28:13;;;;;;;;;;;18.70;52.70;;;;;;500415;237;1079;-44
2021/06/05 01:30:14;;;;;;;;;;;18.70;52.70;;;;;;500650;237;2187;-44
2021/06/05 01:32:16;;;;;;;;;;;18.60;52.70;;;;;;500511;237;1022;-44
2021/06/05 01:34:17;;;;;;;;;;;18.60;52.90;;;;;;500604;237;1056;-44
2021/06/05 01:36:19;;;;;;;;;;;18.60;52.80;;;;;;500882;237;1188;-44
2021/06/05 01:38:21;;;;;;;;;;;18.60;52.80;;;;;;500432;237;1302;-44
2021/06/05 01:40:22;;;;;;;;;;;18.50;53.00;;;;;;500652;237;2379;-44
2021/06/05 01:42:23;;;;;;;;;;;18.60;53.00;;;;;;500805;237;1223;-44
2021/06/05 01:44:24;;;;;;;;;;;18.50;53.00;;;;;;500644;237;1086;-44
2021/06/05 01:46:26;;;;;;;;;;;18.50;53.00;;;;;;500549;237;1169;-44
2021/06/05 01:48:27;;;;;;;;;;;18.50;53.10;;;;;;500928;237;1131;-44
2021/06/05 01:50:28;;;;;;;;;;;18.40;53.10;;;;;;500902;237;2149;-44
2021/06/05 01:52:30;;;;;;;;;;;18.50;53.10;;;;;;500392;237;1148;-44
2021/06/05 01:54:31;;;;;;;;;;;18.50;53.10;;;;;;500457;237;1202;-44
2021/06/05 01:56:32;;;;;;;;;;;18.40;53.20;;;;;;500517;237;1192;-44
2021/06/05 01:58:33;;;;;;;;;;;18.40;53.20;;;;;;500463;237;1152;-44
2021/06/05 02:00:35;;;;;;;;;;;18.40;53.30;;;;;;500449;237;1035;-44
2021/06/05 02:02:36;;;;;;;;;;;18.40;53.30;;;;;;500930;237;1088;-44
2021/06/05 02:04:37;;;;;;;;;;;18.40;53.20;;;;;;500905;237;1068;-44
2021/06/05 02:06:39;;;;;;;;;;;18.50;53.00;;;;;;500787;237;1018;-44
2021/06/05 02:08:40;;;;;;;;;;;18.90;51.90;;;;;;500729;237;1068;-44
2021/06/05 02:10:41;;;;;;;;;;;19.40;50.70;;;;;;500384;237;2195;-44
2021/06/05 02:12:42;;;;;;;;;;;19.70;49.80;;;;;;500872;237;1068;-44
2021/06/05 02:14:44;;;;;;;;;;;19.90;49.20;;;;;;500703;237;1082;-44
2021/06/05 02:16:46;;;;;;;;;;;20.10;48.70;;;;;;500667;237;1164;-44
2021/06/05 02:18:47;;;;;;;;;;;20.20;48.30;;;;;;500771;237;2299;-44
2021/06/05 02:20:48;;;;;;;;;;;20.30;48.00;;;;;;500781;237;984;-44
2021/06/05 02:22:49;;;;;;;;;;;20.40;47.80;;;;;;500971;237;1055;-45
2021/06/05 02:24:50;;;;;;;;;;;20.50;47.70;;;;;;500548;237;1154;-45
2021/06/05 02:26:52;;;;;;;;;;;20.50;47.50;;;;;;500917;237;1080;-45
2021/06/05 02:28:53;;;;;;;;;;;20.60;47.40;;;;;;500517;237;938;-44
2021/06/05 02:30:55;;;;;;;;;;;20.70;47.30;;;;;;500408;237;2151;-44
2021/06/05 02:32:55;;;;;;;;;;;20.70;47.10;;;;;;500839;237;2257;-45
2021/06/05 02:34:57;;;;;;;;;;;20.80;47.10;;;;;;500381;237;1127;-44
2021/06/05 02:36:58;;;;;;;;;;;20.80;47.00;;;;;;500313;237;1488;-44
2021/06/05 02:38:59;;;;;;;;;;;20.80;46.90;;;;;;500786;237;1162;-44
2021/06/05 02:41:01;;;;;;;;;;;20.90;46.80;;;;;;500843;237;1524;-44
2021/06/05 02:43:02;;;;;;;;;;;20.90;46.70;;;;;;500928;237;1212;-45
2021/06/05 02:45:03;;;;;;;;;;;21.00;46.60;;;;;;500607;237;1142;-45
2021/06/05 02:47:05;;;;;;;;;;;21.00;46.50;;;;;;500458;237;1270;-45
2021/06/05 02:49:06;;;;;;;;;;;21.00;46.40;;;;;;500903;237;1029;-45
2021/06/05 02:51:07;;;;;;;;;;;21.10;46.30;;;;;;500886;237;2172;-44
2021/06/05 02:53:08;;;;;;;;;;;21.10;46.30;;;;;;500422;237;1287;-45
2021/06/05 02:55:10;;;;;;;;;;;21.10;46.20;;;;;;500586;237;1237;-45
2021/06/05 02:57:11;;;;;;;;;;;21.20;46.10;;;;;;500840;237;1381;-44
2021/06/05 02:59:12;;;;;;;;;;;21.20;46.10;;;;;;500471;237;1022;-45
2021/06/05 03:01:13;;;;;;;;;;;21.20;46.10;;;;;;500862;237;1195;-45
2021/06/05 03:03:15;;;;;;;;;;;21.20;46.10;;;;;;500921;237;1032;-44
2021/06/05 03:05:16;;;;;;;;;;;21.30;46.10;;;;;;500927;237;1054;-45
2021/06/05 03:07:17;;;;;;;;;;;21.30;46.00;;;;;;500411;237;1046;-44
2021/06/05 03:09:19;;;;;;;;;;;21.30;45.90;;;;;;500686;237;1184;-44
2021/06/05 03:11:20;;;;;;;;;;;21.40;45.90;;;;;;500402;237;2309;-45
2021/06/05 03:13:21;;;;;;;;;;;21.40;45.80;;;;;;500445;237;1054;-44
2021/06/05 03:15:22;;;;;;;;;;;21.40;45.70;;;;;;500542;237;1010;-44
2021/06/05 03:17:24;;;;;;;;;;;21.50;45.70;;;;;;500862;237;1095;-45
2021/06/05 03:19:25;;;;;;;;;;;21.50;45.70;;;;;;500672;237;1076;-45
2021/06/05 03:21:26;;;;;;;;;;;21.50;45.60;;;;;;500876;237;1029;-45
2021/06/05 03:23:27;;;;;;;;;;;21.50;45.60;;;;;;500930;237;1258;-44
2021/06/05 03:25:29;;;;;;;;;;;21.50;45.50;;;;;;500559;237;1257;-45
2021/06/05 03:27:30;;;;;;;;;;;21.50;45.50;;;;;;500737;237;1190;-44
2021/06/05 03:29:31;;;;;;;;;;;21.60;45.50;;;;;;500428;237;2132;-45
2021/06/05 03:31:33;;;;;;;;;;;21.60;45.40;;;;;;500407;237;1151;-45
2021/06/05 03:33:34;;;;;;;;;;;21.60;45.40;;;;;;500538;237;1176;-44
2021/06/05 03:35:37;;;;;;;;;;;21.60;45.30;;;;;;500889;237;1331;-45
2021/06/05 03:37:37;;;;;;;;;;;21.60;45.30;;;;;;500600;237;2058;-44
2021/06/05 03:39:38;;;;;;;;;;;21.70;45.30;;;;;;500440;237;2337;-45
2021/06/05 03:41:40;;;;;;;;;;;21.70;45.20;;;;;;500640;237;1517;-44
2021/06/05 03:43:41;;;;;;;;;;;21.70;45.20;;;;;;500488;237;2536;-45
2021/06/05 03:45:42;;;;;;;;;;;21.70;45.20;;;;;;500556;237;1076;-45
2021/06/05 03:47:46;;;;;;;;;;;21.70;45.20;;;;;;500860;237;1080;-44
2021/06/05 03:49:45;;;;;;;;;;;21.70;45.20;;;;;;500397;237;2204;-45
2021/06/05 03:51:46;;;;;;;;;;;21.70;45.40;;;;;;500737;237;1239;-45
2021/06/05 03:53:47;;;;;;;;;;;21.70;45.20;;;;;;500958;237;994;-45
2021/06/05 03:55:49;;;;;;;;;;;21.40;45.90;;;;;;500523;237;1161;-44
2021/06/05 03:57:50;;;;;;;;;;;20.90;47.10;;;;;;500898;237;1333;-44
2021/06/05 03:59:52;;;;;;;;;;;20.40;48.40;;;;;;500926;237;1080;-44
2021/06/05 04:01:52;;;;;;;;;;;20.00;49.30;;;;;;500527;237;2241;-44
2021/06/05 04:03:54;;;;;;;;;;;19.80;49.90;;;;;;500511;237;1043;-44
2021/06/05 04:05:55;;;;;;;;;;;19.60;50.40;;;;;;500846;237;1909;-44
2021/06/05 04:07:56;;;;;;;;;;;19.50;50.70;;;;;;500357;237;1585;-44
2021/06/05 04:09:57;;;;;;;;;;;19.40;51.00;;;;;;500796;237;2161;-45
2021/06/05 04:11:59;;;;;;;;;;;19.40;51.30;;;;;;500519;237;1189;-45
2021/06/05 04:14:01;;;;;;;;;;;19.30;51.50;;;;;;500970;237;1118;-44
2021/06/05 04:16:01;;;;;;;;;;;19.20;51.70;;;;;;500643;237;1591;-44
2021/06/05 04:18:03;;;;;;;;;;;19.10;51.80;;;;;;500478;237;1139;-44
2021/06/05 04:20:04;;;;;;;;;;;19.10;51.80;;;;;;500824;237;1189;-44
2021/06/05 04:22:06;;;;;;;;;;;19.10;51.90;;;;;;500184;238;1273;-44
2021/06/05 04:24:07;;;;;;;;;;;19.10;51.90;;;;;;500491;237;951;-44
2021/06/05 04:26:09;;;;;;;;;;;19.10;51.90;;;;;;500452;237;1293;-44
2021/06/05 04:28:10;;;;;;;;;;;19.10;52.00;;;;;;500374;237;1164;-44
2021/06/05 04:30:12;;;;;;;;;;;19.00;52.00;;;;;;500764;237;2142;-44
2021/06/05 04:32:12;;;;;;;;;;;19.00;52.20;;;;;;500482;237;1394;-45
2021/06/05 04:34:14;;;;;;;;;;;18.90;52.20;;;;;;500469;237;1008;-44
2021/06/05 04:36:15;;;;;;;;;;;18.90;52.40;;;;;;500571;237;1627;-45
2021/06/05 04:38:16;;;;;;;;;;;18.90;52.40;;;;;;500618;237;1092;-44
2021/06/05 04:40:17;;;;;;;;;;;18.80;52.40;;;;;;500665;237;1238;-44
2021/06/05 04:42:19;;;;;;;;;;;18.80;52.40;;;;;;500356;237;1114;-44
2021/06/05 04:44:20;;;;;;;;;;;18.80;52.50;;;;;;500899;237;1050;-44
2021/06/05 04:46:22;;;;;;;;;;;18.80;52.50;;;;;;500888;237;1097;-44
2021/06/05 04:48:24;;;;;;;;;;;18.70;52.60;;;;;;500881;237;2412;-44
2021/06/05 04:50:25;;;;;;;;;;;18.80;52.70;;;;;;500479;237;2218;-44
2021/06/05 04:52:26;;;;;;;;;;;18.80;52.60;;;;;;500416;237;1215;-44
2021/06/05 04:54:27;;;;;;;;;;;18.70;52.60;;;;;;500450;237;2172;-44
2021/06/05 04:56:28;;;;;;;;;;;18.70;52.70;;;;;;500540;237;1189;-44
2021/06/05 04:58:30;;;;;;;;;;;18.70;52.80;;;;;;500787;237;1129;-44
2021/06/05 05:00:31;;;;;;;;;;;18.60;52.90;;;;;;500410;237;1511;-44
2021/06/05 05:02:32;;;;;;;;;;;18.70;52.90;;;;;;500414;237;1068;-44
2021/06/05 05:04:34;;;;;;;;;;;18.60;52.90;;;;;;500917;237;1033;-44
2021/06/05 05:06:35;;;;;;;;;;;18.60;52.90;;;;;;500624;237;1082;-44
2021/06/05 05:08:36;;;;;;;;;;;18.50;52.90;;;;;;500827;238;1099;-44
2021/06/05 05:10:37;;;;;;;;;;;18.60;53.00;;;;;;500826;237;2176;-44
2021/06/05 05:12:39;;;;;;;;;;;18.60;53.00;;;;;;500506;237;1099;-44
2021/06/05 05:14:40;;;;;;;;;;;18.60;53.10;;;;;;500476;237;1208;-44
2021/06/05 05:16:41;;;;;;;;;;;18.60;53.00;;;;;;500826;237;1249;-44
2021/06/05 05:18:45;;;;;;;;;;;18.60;53.10;;;;;;500913;237;996;-44
2021/06/05 05:20:44;;;;;;;;;;;18.50;53.00;;;;;;500417;237;2053;-44
2021/06/05 05:22:45;;;;;;;;;;;18.50;53.10;;;;;;500428;237;1090;-44
2021/06/05 05:24:46;;;;;;;;;;;18.50;53.10;;;;;;500921;237;1047;-44
2021/06/05 05:26:48;;;;;;;;;;;18.50;53.10;;;;;;500599;237;1290;-44
2021/06/05 05:28:50;;;;;;;;;;;18.50;53.10;;;;;;500481;237;1068;-44
2021/06/05 05:30:51;;;;;;;;;;;18.50;53.20;;;;;;500583;237;2136;-44
2021/06/05 05:32:52;;;;;;;;;;;18.50;53.10;;;;;;500451;237;1067;-44
2021/06/05 05:34:53;;;;;;;;;;;18.50;53.10;;;;;;500947;237;1274;-44
2021/06/05 05:36:55;;;;;;;;;;;18.50;53.00;;;;;;500359;237;1339;-45
2021/06/05 05:38:56;;;;;;;;;;;18.40;53.10;;;;;;500901;237;1015;-44
2021/06/05 05:40:57;;;;;;;;;;;18.40;53.10;;;;;;500368;237;1304;-44
2021/06/05 05:42:59;;;;;;;;;;;18.40;53.20;;;;;;500320;237;1157;-44
2021/06/05 05:45:00;;;;;;;;;;;18.40;53.20;;;;;;500441;237;1069;-44
2021/06/05 05:47:01;;;;;;;;;;;18.40;53.20;;;;;;500483;237;1205;-44
2021/06/05 05:49:02;;;;;;;;;;;18.40;53.20;;;;;;500458;237;1129;-44
2021/06/05 05:51:04;;;;;;;;;;;18.40;53.10;;;;;;500797;237;2380;-44
2021/06/05 05:53:05;;;;;;;;;;;18.70;52.50;;;;;;500482;237;1129;-44
2021/06/05 05:55:06;;;;;;;;;;;19.10;51.30;;;;;;500605;237;1108;-44
2021/06/05 05:57:08;;;;;;;;;;;19.50;50.40;;;;;;500384;237;1302;-44
2021/06/05 05:59:09;;;;;;;;;;;19.70;49.60;;;;;;500715;237;1023;-44
2021/06/05 06:01:11;;;;;;;;;;;19.90;49.10;;;;;;500714;237;1385;-44
2021/06/05 06:03:11;;;;;;;;;;;20.10;48.70;;;;;;500401;237;2014;-45
2021/06/05 06:05:13;;;;;;;;;;;20.20;48.40;;;;;;500507;237;1118;-44
2021/06/05 06:07:14;;;;;;;;;;;20.30;48.20;;;;;;500271;237;1304;-44
2021/06/05 06:09:16;;;;;;;;;;;20.40;47.90;;;;;;500370;237;1212;-45
2021/06/05 06:11:16;;;;;;;;;;;20.40;47.80;;;;;;500536;237;2195;-44
2021/06/05 06:13:18;;;;;;;;;;;20.50;47.60;;;;;;500452;237;1083;-44
2021/06/05 06:15:19;;;;;;;;;;;20.60;47.50;;;;;;500570;237;1407;-45
2021/06/05 06:17:20;;;;;;;;;;;20.60;47.30;;;;;;500452;237;1125;-44
2021/06/05 06:19:22;;;;;;;;;;;20.70;47.30;;;;;;500389;237;1028;-44
2021/06/05 06:21:23;;;;;;;;;;;20.70;47.10;;;;;;500632;237;1321;-45
2021/06/05 06:23:24;;;;;;;;;;;20.80;47.10;;;;;;500586;237;1157;-45
2021/06/05 06:25:27;;;;;;;;;;;20.80;47.00;;;;;;500386;237;1045;-45
2021/06/05 06:27:27;;;;;;;;;;;20.80;47.00;;;;;;500568;237;2266;-44
2021/06/05 06:29:31;;;;;;;;;;;20.90;46.90;;;;;;500864;237;1047;-45
2021/06/05 06:31:30;;;;;;;;;;;20.90;46.70;;;;;;500298;237;2179;-45
2021/06/05 06:33:31;;;;;;;;;;;21.00;46.80;;;;;;500267;237;1130;-44
2021/06/05 06:35:33;;;;;;;;;;;21.00;46.70;;;;;;500773;237;1067;-44
2021/06/05 06:37:34;;;;;;;;;;;21.00;46.60;;;;;;500795;237;1166;-44
2021/06/05 06:39:36;;;;;;;;;;;21.00;46.50;;;;;;500864;237;1089;-44
2021/06/05 06:41:37;;;;;;;;;;;21.10;46.40;;;;;;500439;237;1157;-45
2021/06/05 06:43:38;;;;;;;;;;;21.10;46.30;;;;;;500605;237;1045;-44
2021/06/05 06:45:39;;;;;;;;;;;21.10;46.30;;;;;;500527;237;1122;-44
2021/06/05 06:47:41;;;;;;;;;;;21.20;46.30;;;;;;500498;237;1054;-45
2021/06/05 06:49:42;;;;;;;;;;;21.20;46.10;;;;;;500397;237;1063;-45
2021/06/05 06:51:43;;;;;;;;;;;21.20;46.10;;;;;;500348;237;2176;-44
2021/06/05 06:53:45;;;;;;;;;;;21.20;46.10;;;;;;500395;237;1070;-45
2021/06/05 06:55:46;;;;;;;;;;;21.20;46.10;;;;;;500865;237;1206;-44
2021/06/05 06:57:47;;;;;;;;;;;21.20;46.10;;;;;;500338;237;1222;-44
2021/06/05 06:59:49;;;;;;;;;;;21.30;46.20;;;;;;500449;237;1219;-45
2021/06/05 07:01:50;;;;;;;;;;;21.30;46.20;;;;;;500322;237;1196;-45
2021/06/05 07:03:51;;;;;;;;;;;21.30;46.10;;;;;;500500;237;1043;-44
2021/06/05 07:05:52;;;;;;;;;;;21.30;46.00;;;;;;500476;237;1383;-44
2021/06/05 07:07:54;;;;;;;;;;;21.30;46.00;;;;;;500795;237;1146;-44
2021/06/05 07:09:55;;;;;;;;;;;21.40;46.00;;;;;;500693;237;1036;-45
2021/06/05 07:11:56;;;;;;;;;;;21.40;46.00;;;;;;500783;237;2134;-45
2021/06/05 07:13:58;;;;;;;;;;;21.40;45.90;;;;;;500487;237;1029;-44
2021/06/05 07:15:59;;;;;;;;;;;21.40;45.90;;;;;;500398;237;1204;-44
2021/06/05 07:18:01;;;;;;;;;;;21.40;45.80;;;;;;500718;237;1046;-44
2021/06/05 07:20:01;;;;;;;;;;;21.50;45.80;;;;;;500759;237;2501;-45
2021/06/05 07:22:03;;;;;;;;;;;21.50;45.80;;;;;;500289;237;1228;-45
2021/06/05 07:24:04;;;;;;;;;;;21.50;45.70;;;;;;500451;237;1140;-45
2021/06/05 07:26:05;;;;;;;;;;;21.50;45.60;;;;;;500301;237;1127;-45
2021/06/05 07:28:07;;;;;;;;;;;21.60;45.60;;;;;;500549;237;1176;-45
2021/06/05 07:30:08;;;;;;;;;;;21.60;45.60;;;;;;500744;237;1049;-45
2021/06/05 07:32:09;;;;;;;;;;;21.50;45.60;;;;;;500457;237;2126;-44
2021/06/05 07:34:11;;;;;;;;;;;21.60;45.60;;;;;;500878;237;1071;-45
2021/06/05 07:36:12;;;;;;;;;;;21.60;45.50;;;;;;500642;237;1163;-45
2021/06/05 07:38:13;;;;;;;;;;;21.60;45.50;;;;;;500365;237;1048;-45
2021/06/05 07:40:15;;;;;;;;;;;21.60;45.50;;;;;;500832;237;1054;-45
2021/06/05 07:42:16;;;;;;;;;;;21.60;45.50;;;;;;500642;237;1156;-45
2021/06/05 07:44:17;;;;;;;;;;;21.60;45.50;;;;;;500422;237;1190;-44
2021/06/05 07:46:18;;;;;;;;;;;21.70;45.50;;;;;;500776;237;1114;-45
2021/06/05 07:48:20;;;;;;;;;;;21.70;45.40;;;;;;500811;237;1132;-45
2021/06/05 07:50:21;;;;;;;;;;;21.70;45.40;;;;;;500373;237;1069;-44
2021/06/05 07:52:24;;;;;;;;;;;21.70;45.50;;;;;;500574;237;2133;-45
2021/06/05 07:54:25;;;;;;;;;;;21.70;45.40;;;;;;500895;237;1046;-45
2021/06/05 07:56:26;;;;;;;;;;;21.60;45.60;;;;;;500369;237;1201;-44
2021/06/05 07:58:28;;;;;;;;;;;21.20;46.40;;;;;;500507;237;1180;-44
2021/06/05 08:00:29;;;;;;;;;;;20.70;47.70;;;;;;500820;237;1237;-44
2021/06/05 08:02:30;;;;;;;;;;;20.30;48.70;;;;;;500848;237;1289;-44
2021/06/05 08:04:31;;;;;;;;;;;20.10;49.50;;;;;;500894;237;944;-44
2021/06/05 08:06:33;;;;;;;;;;;19.90;49.90;;;;;;500625;237;1152;-44
2021/06/05 08:08:34;;;;;;;;;;;19.70;50.20;;;;;;500746;237;1058;-44
2021/06/05 08:10:35;;;;;;;;;;;19.60;50.60;;;;;;500359;237;1071;-44
2021/06/05 08:12:37;;;;;;;;;;;19.50;50.90;;;;;;500361;237;2274;-44
2021/06/05 08:14:38;;;;;;;;;;;19.40;51.10;;;;;;500397;237;1182;-44
2021/06/05 08:16:39;;;;;;;;;;;19.40;51.30;;;;;;500538;237;1333;-44
2021/06/05 08:18:40;;;;;;;;;;;19.30;51.50;;;;;;500845;237;1035;-45
2021/06/05 08:20:42;;;;;;;;;;;19.30;51.60;;;;;;500403;237;1113;-44
2021/06/05 08:22:43;;;;;;;;;;;19.20;51.60;;;;;;500823;237;1135;-44
2021/06/05 08:24:44;;;;;;;;;;;19.20;51.70;;;;;;500595;237;1026;-44
2021/06/05 08:26:46;;;;;;;;;;;19.10;51.90;;;;;;500341;237;1437;-44
2021/06/05 08:28:47;;;;;;;;;;;19.10;51.90;;;;;;500651;237;1120;-44
2021/06/05 08:30:48;;;;;;;;;;;19.10;52.00;;;;;;500386;237;1104;-44
2021/06/05 08:32:49;;;;;;;;;;;19.10;52.10;;;;;;500591;237;2172;-44
2021/06/05 08:34:51;;;;;;;;;;;19.00;52.10;;;;;;500509;237;1055;-44
2021/06/05 08:36:52;;;;;;;;;;;19.00;52.30;;;;;;500654;237;981;-44
2021/06/05 08:38:53;;;;;;;;;;;19.00;52.30;;;;;;500933;237;1046;-44
2021/06/05 08:40:54;;;;;;;;;;;18.90;52.30;;;;;;500402;237;1069;-44
2021/06/05 08:42:56;;;;;;;;;;;18.90;52.40;;;;;;500919;237;1064;-44
2021/06/05 08:44:57;;;;;;;;;;;18.90;52.50;;;;;;500488;237;1199;-44
2021/06/05 08:46:58;;;;;;;;;;;18.80;52.60;;;;;;500860;237;1031;-44
2021/06/05 08:49:00;;;;;;;;;;;18.80;52.60;;;;;;500625;237;1063;-44
2021/06/05 08:51:01;;;;;;;;;;;18.80;52.60;;;;;;500490;237;1046;-44
2021/06/05 08:53:03;;;;;;;;;;;18.80;52.70;;;;;;500632;237;2141;-44
2021/06/05 08:55:04;;;;;;;;;;;18.70;52.80;;;;;;500815;237;2274;-44
2021/06/05 08:57:05;;;;;;;;;;;18.70;52.80;;;;;;500815;237;1203;-44
2021/06/05 08:59:06;;;;;;;;;;;18.70;52.80;;;;;;500650;237;1192;-44
2021/06/05 09:01:08;;;;;;;;;;;18.70;52.90;;;;;;500845;237;1196;-44
2021/06/05 09:03:09;;;;;;;;;;;18.70;52.90;;;;;;500903;237;1083;-44
2021/06/05 09:05:10;;;;;;;;;;;18.70;52.90;;;;;;500921;237;1046;-44
2021/06/05 09:07:11;;;;;;;;;;;18.70;52.90;;;;;;500339;237;1308;-44
2021/06/05 09:09:13;;;;;;;;;;;18.70;52.90;;;;;;500368;237;1088;-44
2021/06/05 09:11:14;;;;;;;;;;;18.70;53.00;;;;;;500689;237;1041;-44
2021/06/05 09:13:15;;;;;;;;;;;18.60;53.00;;;;;;500366;237;2171;-44
2021/06/05 09:15:16;;;;;;;;;;;18.60;53.00;;;;;;500437;237;1236;-44
2021/06/05 09:17:18;;;;;;;;;;;18.60;53.00;;;;;;500354;237;1066;-44
2021/06/05 09:19:19;;;;;;;;;;;18.60;53.10;;;;;;500347;237;1067;-44
2021/06/05 09:21:20;;;;;;;;;;;18.60;53.00;;;;;;500811;237;1073;-44
2021/06/05 09:23:22;;;;;;;;;;;18.60;53.00;;;;;;500778;237;1122;-44
2021/06/05 09:25:23;;;;;;;;;;;18.50;53.10;;;;;;500437;237;1094;-44
2021/06/05 09:27:24;;;;;;;;;;;18.60;53.10;;;;;;500447;237;1208;-44
2021/06/05 09:29:25;;;;;;;;;;;18.50;53.10;;;;;;500724;237;1142;-44
2021/06/05 09:31:27;;;;;;;;;;;18.60;53.10;;;;;;500580;237;1115;-44
2021/06/05 09:33:28;;;;;;;;;;;18.50;53.10;;;;;;500832;237;2233;-44
2021/06/05 09:35:29;;;;;;;;;;;18.50;53.20;;;;;;500853;237;1221;-44
2021/06/05 09:37:31;;;;;;;;;;;18.50;53.20;;;;;;500305;237;1295;-44
2021/06/05 09:39:32;;;;;;;;;;;18.50;53.30;;;;;;500886;237;1065;-44
2021/06/05 09:41:33;;;;;;;;;;;18.50;53.20;;;;;;500478;237;1173;-44
2021/06/05 09:43:34;;;;;;;;;;;18.40;53.30;;;;;;500357;237;1065;-44
2021/06/05 09:45:37;;;;;;;;;;;18.50;53.30;;;;;;500423;237;1114;-44
2021/06/05 09:47:37;;;;;;;;;;;18.50;53.10;;;;;;500778;237;1475;-44
2021/06/05 09:49:39;;;;;;;;;;;18.90;52.10;;;;;;500376;237;1084;-44
2021/06/05 09:51:40;;;;;;;;;;;19.30;51.00;;;;;;500328;237;2168;-44
2021/06/05 09:53:41;;;;;;;;;;;19.60;50.20;;;;;;500390;237;1014;-44
2021/06/05 09:55:43;;;;;;;;;;;19.90;49.50;;;;;;500381;237;968;-44
2021/06/05 09:57:44;;;;;;;;;;;20.00;49.00;;;;;;500377;237;1504;-44
2021/06/05 09:59:45;;;;;;;;;;;20.20;48.70;;;;;;500733;237;1171;-44
2021/06/05 10:01:47;;;;;;;;;;;20.30;48.40;;;;;;500490;237;1056;-44
2021/06/05 10:03:48;;;;;;;;;;;20.40;48.10;;;;;;500880;237;1041;-45
2021/06/05 10:05:49;;;;;;;;;;;20.50;48.00;;;;;;500609;237;1149;-44
2021/06/05 10:07:50;;;;;;;;;;;20.50;47.90;;;;;;500749;237;1120;-44
2021/06/05 10:09:52;;;;;;;;;;;20.60;47.70;;;;;;500690;237;1031;-45
2021/06/05 10:11:53;;;;;;;;;;;20.60;47.50;;;;;;500340;237;2128;-44
2021/06/05 10:13:54;;;;;;;;;;;20.70;47.40;;;;;;500706;237;1017;-45
2021/06/05 10:15:55;;;;;;;;;;;20.70;47.20;;;;;;500415;237;1158;-45
2021/06/05 10:17:57;;;;;;;;;;;20.80;47.20;;;;;;500435;237;1298;-45
2021/06/05 10:19:59;;;;;;;;;;;20.80;47.10;;;;;;500359;237;1102;-44
2021/06/05 10:22:00;;;;;;;;;;;20.90;47.00;;;;;;500684;237;1090;-44
2021/06/05 10:24:01;;;;;;;;;;;20.90;47.00;;;;;;500869;237;1062;-44
2021/06/05 10:26:02;;;;;;;;;;;20.90;46.90;;;;;;500868;237;1047;-44
2021/06/05 10:28:04;;;;;;;;;;;20.90;46.80;;;;;;500831;237;1135;-45
2021/06/05 10:30:05;;;;;;;;;;;21.00;46.80;;;;;;500526;237;1147;-44
2021/06/05 10:32:06;;;;;;;;;;;21.00;46.70;;;;;;500652;237;2180;-44
2021/06/05 10:34:07;;;;;;;;;;;21.10;46.60;;;;;;500553;237;1048;-45
2021/06/05 10:36:09;;;;;;;;;;;21.10;46.50;;;;;;500402;237;1070;-44
2021/06/05 10:38:10;;;;;;;;;;;21.10;46.40;;;;;;500408;237;1026;-45
2021/06/05 10:40:11;;;;;;;;;;;21.20;46.40;;;;;;500383;237;1097;-44
2021/06/05 10:42:13;;;;;;;;;;;21.20;46.30;;;;;;500624;237;1093;-44
2021/06/05 10:44:14;;;;;;;;;;;21.20;46.30;;;;;;500429;237;1092;-44
2021/06/05 10:46:15;;;;;;;;;;;21.20;46.20;;;;;;500429;237;1205;-45
2021/06/05 10:48:17;;;;;;;;;;;21.20;46.10;;;;;;500416;237;1093;-44
2021/06/05 10:50:18;;;;;;;;;;;21.20;46.10;;;;;;500635;237;1220;-44
2021/06/05 10:52:25;;;;;;;;;;;21.30;46.20;;;;;;500816;237;2121;-45
2021/06/05 10:54:21;;;;;;;;;;;21.30;46.20;;;;;;500531;237;1477;-44
2021/06/05 10:56:24;;;;;;;;;;;21.30;46.20;;;;;;500603;237;1060;-44
2021/06/05 10:58:25;;;;;;;;;;;21.30;46.20;;;;;;500414;237;2226;-45
2021/06/05 11:00:26;;;;;;;;;;;21.30;46.10;;;;;;500384;237;1300;-45
2021/06/05 11:02:28;;;;;;;;;;;21.40;46.20;;;;;;500303;237;1057;-45
2021/06/05 11:04:29;;;;;;;;;;;21.40;46.20;;;;;;500385;237;1068;-45
2021/06/05 11:06:30;;;;;;;;;;;21.40;46.10;;;;;;500363;237;1086;-45
2021/06/05 11:08:31;;;;;;;;;;;21.40;46.00;;;;;;500514;237;1189;-44
2021/06/05 11:10:33;;;;;;;;;;;21.40;46.00;;;;;;500371;237;1085;-44
2021/06/05 11:12:34;;;;;;;;;;;21.50;46.00;;;;;;500805;237;2184;-45
2021/06/05 11:14:35;;;;;;;;;;;21.40;45.90;;;;;;500505;237;1041;-45
2021/06/05 11:16:37;;;;;;;;;;;21.50;45.90;;;;;;500453;237;1136;-45
2021/06/05 11:18:38;;;;;;;;;;;21.50;45.90;;;;;;500546;237;1123;-45
2021/06/05 11:20:39;;;;;;;;;;;21.50;45.80;;;;;;500329;237;1057;-45
2021/06/05 11:22:41;;;;;;;;;;;21.50;45.80;;;;;;500362;237;1139;-44
2021/06/05 11:24:42;;;;;;;;;;;21.50;45.80;;;;;;500785;237;1059;-45
2021/06/05 11:26:43;;;;;;;;;;;21.60;45.80;;;;;;500822;237;1159;-44
2021/06/05 11:28:45;;;;;;;;;;;21.60;45.70;;;;;;500609;237;1044;-45
2021/06/05 11:30:46;;;;;;;;;;;21.60;45.70;;;;;;500586;237;1190;-44
2021/06/05 11:32:47;;;;;;;;;;;21.60;45.60;;;;;;500653;237;2136;-45
2021/06/05 11:34:48;;;;;;;;;;;21.60;45.60;;;;;;500382;237;1106;-44
2021/06/05 11:36:50;;;;;;;;;;;21.60;45.60;;;;;;500341;237;1182;-45
2021/06/05 11:38:51;;;;;;;;;;;21.70;45.60;;;;;;500414;237;2341;-45
2021/06/05 11:40:52;;;;;;;;;;;21.70;45.60;;;;;;500399;237;1079;-45
2021/06/05 11:42:54;;;;;;;;;;;21.70;45.50;;;;;;500849;237;1190;-45
2021/06/05 11:44:55;;;;;;;;;;;21.70;45.60;;;;;;500433;237;1033;-45
2021/06/05 11:46:56;;;;;;;;;;;21.70;45.60;;;;;;500500;237;1256;-45
2021/06/05 11:49:00;;;;;;;;;;;21.60;45.60;;;;;;500335;237;1061;-44
2021/06/05 11:51:00;;;;;;;;;;;21.20;46.40;;;;;;500377;237;1321;-44
2021/06/05 11:53:01;;;;;;;;;;;20.80;47.70;;;;;;500380;237;2128;-44
2021/06/05 11:55:04;;;;;;;;;;;20.30;48.70;;;;;;500546;237;1190;-44
2021/06/05 11:57:04;;;;;;;;;;;20.10;49.40;;;;;;500350;237;2193;-44